Meath Environmental Platform

Observations for Trim Market St

Time AQI Temp °C Hum % Pres Pa CO μg/m³ H₂S μg/m³ NO μg/m³ NO₂ μg/m³ O₃ μg/m³ SO₂ μg/m³ PM1 μg/m³ PM2.5 μg/m³ PM10 μg/m³
Tuesday 14 July 2026
19:30 2 24 41 65,015 0 2.99 0 9.57 37.08 0 3.56 6.55 8.33
19:29 2 24.1 40 65,062 0 2.93 0 10.25 35.76 0 3.56 7.08 8.33
19:28 2 24.1 40 65,101 0 2.98 0 10.68 38.04 0 4.28 8.68 10.74
19:27 2 24.1 40 65,113 0 3.04 0 10.38 35.76 0 2.85 6.57 7.53
19:26 2 24.1 40 65,135 0 2.32 0 10.69 35.05 0 3.56 7.63 9.13
19:25 2 24.1 40 65,192 0 3.22 0 10.31 36.04 0 3.56 7.64 10.75
19:24 2 24.1 40 65,209 0 4.31 0 11.12 39.91 0 2.85 6.59 7.53
19:23 2 24.1 40 65,258 0 3.62 0 10.43 36.79 0 2.85 6.59 9.94
19:22 2 24.1 40 65,291 0 4.07 0 11.16 39.42 0 2.85 7.13 8.33
19:21 2 24.1 39 65,360 0 3.2 0 10.58 35.32 0 2.85 6.61 7.53
19:20 2 24.1 39 65,394 0 3.73 0 11.5 40.57 0 3.56 8.21 12.38
19:19 2 24.1 39 65,402 0 1.37 0 9.42 34.83 0 4.28 7.7 9.96
19:18 2 24.1 39 65,418 0 3.14 0 11.33 38.09 0 4.28 8.23 9.96
19:17 2 24.1 39 65,469 0 1.39 0 9.46 37.54 0 4.99 8.77 10.78
19:15 2 24.2 38 65,471 0 1.36 0 9.08 39.44 0 3.56 7.73 9.97
19:14 2 24.2 38 65,501 0 0.78 0 8.1 39.3 0 4.28 8.28 9.97
19:12 2 24.2 38 65,562 0 1.76 0 8.63 40.82 0 4.28 7.23 8.34
19:10 2 24.2 37 65,600 0 1.12 0 8.28 40.55 0 2.85 6.19 8.35
19:08 2 24.3 37 65,651 0 0 0 6.39 37.47 0 2.14 6.2 7.53
19:00 2 24.4 37 65,670 0 0 0 4.69 27.71 0 3.56 6.75 9.17